TAM3948 SBSP-SBCF
Flight info
| Callsign | TAM3948 |
|---|---|
| Flight time | 0h 51m |
| Altitude | 33000 |
| Route | NUXEL UZ23 KIBAP |
| Aircraft | A320/M-SDE3FGHIRWY/LB1 |
Departure
| Time | 2026-05-03 22:28 |
|---|---|
| Airport | Congonhas–Deputado Freitas Nobre Airport (SBSP) |
Arrival
| Time | 2026-05-03 23:19 |
|---|---|
| Airport | Tancredo Neves International Airport (SBCF) |
| Time | Latitude | Longitude | Altitude | Speed | Heading |
|---|---|---|---|---|---|
| 2026-05-03 22:02 | -23.62940 | -46.65810 | 2601 ft | 0 kts | 328° |
| 2026-05-03 22:18 | -23.62959 | -46.65797 | 2600 ft | 4 kts | 332° |
| 2026-05-03 22:18 | -23.62980 | -46.65790 | 2600 ft | 4 kts | 30° |
| 2026-05-03 22:18 | -23.62993 | -46.65807 | 2600 ft | 3 kts | 57° |
| 2026-05-03 22:19 | -23.62995 | -46.65809 | 2600 ft | 0 kts | 57° |
| 2026-05-03 22:21 | -23.62991 | -46.65802 | 2600 ft | 2 kts | 57° |
| 2026-05-03 22:21 | -23.62979 | -46.65783 | 2600 ft | 4 kts | 57° |
| 2026-05-03 22:21 | -23.62960 | -46.65750 | 2600 ft | 6 kts | 57° |
| 2026-05-03 22:22 | -23.62933 | -46.65705 | 2601 ft | 8 kts | 57° |
| 2026-05-03 22:22 | -23.62905 | -46.65656 | 2601 ft | 3 kts | 57° |
| 2026-05-03 22:22 | -23.62891 | -46.65632 | 2602 ft | 4 kts | 57° |
| 2026-05-03 22:22 | -23.62870 | -46.65617 | 2603 ft | 4 kts | 7° |
| 2026-05-03 22:23 | -23.62832 | -46.65640 | 2603 ft | 8 kts | 328° |
| 2026-05-03 22:23 | -23.62787 | -46.65671 | 2603 ft | 10 kts | 327° |
| 2026-05-03 22:23 | -23.62755 | -46.65693 | 2602 ft | 11 kts | 327° |
| 2026-05-03 22:23 | -23.62693 | -46.65737 | 2602 ft | 8 kts | 327° |
| 2026-05-03 22:24 | -23.62660 | -46.65760 | 2602 ft | 6 kts | 327° |
| 2026-05-03 22:24 | -23.62619 | -46.65788 | 2602 ft | 8 kts | 327° |
| 2026-05-03 22:24 | -23.62568 | -46.65823 | 2602 ft | 10 kts | 328° |
| 2026-05-03 22:24 | -23.62503 | -46.65868 | 2601 ft | 12 kts | 327° |
| 2026-05-03 22:25 | -23.62436 | -46.65914 | 2601 ft | 10 kts | 327° |
| 2026-05-03 22:25 | -23.62369 | -46.65961 | 2600 ft | 13 kts | 327° |
| 2026-05-03 22:25 | -23.62289 | -46.66016 | 2600 ft | 15 kts | 327° |
| 2026-05-03 22:25 | -23.62201 | -46.66067 | 2599 ft | 14 kts | 328° |
| 2026-05-03 22:26 | -23.62129 | -46.66118 | 2590 ft | 9 kts | 326° |
| 2026-05-03 22:26 | -23.62059 | -46.66132 | 2589 ft | 12 kts | 25° |
| 2026-05-03 22:26 | -23.62042 | -46.66113 | 2592 ft | 1 kts | 53° |
| 2026-05-03 22:26 | -23.62033 | -46.66087 | 2592 ft | 5 kts | 92° |
| 2026-05-03 22:27 | -23.62056 | -46.66070 | 2596 ft | 3 kts | 151° |
| 2026-05-03 22:27 | -23.62058 | -46.66068 | 2596 ft | 0 kts | 152° |
| 2026-05-03 22:27 | -23.62065 | -46.66063 | 2591 ft | 2 kts | 147° |
| 2026-05-03 22:27 | -23.62072 | -46.66059 | 2594 ft | 0 kts | 148° |
| 2026-05-03 22:28 | -23.62247 | -46.65938 | 2600 ft | 73 kts | 147° |
| 2026-05-03 22:28 | -23.62906 | -46.65482 | 2611 ft | 146 kts | 148° |
| 2026-05-03 22:28 | -23.63856 | -46.64830 | 3107 ft | 168 kts | 147° |
| 2026-05-03 22:28 | -23.64850 | -46.64060 | 3567 ft | 189 kts | 135° |
| 2026-05-03 22:29 | -23.65664 | -46.62811 | 3871 ft | 216 kts | 120° |
| 2026-05-03 22:29 | -23.66390 | -46.61297 | 4313 ft | 241 kts | 117° |
| 2026-05-03 22:29 | -23.67164 | -46.59581 | 4939 ft | 259 kts | 117° |
| 2026-05-03 22:29 | -23.67974 | -46.57789 | 5867 ft | 265 kts | 117° |
| 2026-05-03 22:30 | -23.68818 | -46.55966 | 6788 ft | 271 kts | 117° |
| 2026-05-03 22:30 | -23.69696 | -46.54122 | 7686 ft | 277 kts | 118° |
| 2026-05-03 22:30 | -23.70612 | -46.52241 | 8548 ft | 283 kts | 118° |
| 2026-05-03 22:30 | -23.71424 | -46.50258 | 9402 ft | 289 kts | 107° |
| 2026-05-03 22:31 | -23.71773 | -46.48113 | 10252 ft | 293 kts | 92° |
| 2026-05-03 22:31 | -23.71630 | -46.45846 | 10826 ft | 309 kts | 81° |
| 2026-05-03 22:31 | -23.71288 | -46.43424 | 11220 ft | 329 kts | 80° |
| 2026-05-03 22:31 | -23.70928 | -46.40955 | 11895 ft | 337 kts | 79° |
| 2026-05-03 22:32 | -23.70554 | -46.38401 | 12618 ft | 344 kts | 79° |
| 2026-05-03 22:32 | -23.70171 | -46.35787 | 13300 ft | 352 kts | 79° |
| 2026-05-03 22:32 | -23.69784 | -46.33117 | 13964 ft | 361 kts | 80° |
| 2026-05-03 22:32 | -23.69392 | -46.30380 | 14654 ft | 367 kts | 81° |
| 2026-05-03 22:33 | -23.68996 | -46.27598 | 15351 ft | 373 kts | 81° |
| 2026-05-03 22:33 | -23.68601 | -46.24810 | 16034 ft | 379 kts | 81° |
| 2026-05-03 22:33 | -23.68195 | -46.21949 | 16719 ft | 384 kts | 81° |
| 2026-05-03 22:33 | -23.67758 | -46.19053 | 17390 ft | 389 kts | 77° |
| 2026-05-03 22:34 | -23.66907 | -46.16244 | 18042 ft | 393 kts | 63° |
| 2026-05-03 22:34 | -23.65515 | -46.13676 | 18699 ft | 395 kts | 50° |
| 2026-05-03 22:34 | -23.63639 | -46.11482 | 19302 ft | 398 kts | 37° |
| 2026-05-03 22:34 | -23.61352 | -46.09765 | 19900 ft | 401 kts | 24° |
| 2026-05-03 22:35 | -23.58848 | -46.08376 | 20484 ft | 407 kts | 23° |
| 2026-05-03 22:35 | -23.56296 | -46.06967 | 21067 ft | 414 kts | 23° |
| 2026-05-03 22:35 | -23.53704 | -46.05530 | 21631 ft | 421 kts | 23° |
| 2026-05-03 22:35 | -23.51065 | -46.04066 | 22103 ft | 429 kts | 22° |
| 2026-05-03 22:36 | -23.48420 | -46.02599 | 22246 ft | 433 kts | 22° |
| 2026-05-03 22:36 | -23.45723 | -46.01119 | 22266 ft | 433 kts | 20° |
| 2026-05-03 22:36 | -23.42904 | -46.00026 | 22268 ft | 426 kts | 8° |
| 2026-05-03 22:36 | -23.40005 | -45.99519 | 22266 ft | 418 kts | 357° |
| 2026-05-03 22:37 | -23.37101 | -45.99418 | 22274 ft | 418 kts | 355° |
| 2026-05-03 22:37 | -23.34193 | -45.99329 | 22275 ft | 418 kts | 355° |
| 2026-05-03 22:37 | -23.31288 | -45.99231 | 22275 ft | 418 kts | 356° |
| 2026-05-03 22:37 | -23.28382 | -45.99128 | 22275 ft | 417 kts | 356° |
| 2026-05-03 22:38 | -23.25469 | -45.99024 | 22529 ft | 420 kts | 356° |
| 2026-05-03 22:38 | -23.22536 | -45.98919 | 23190 ft | 423 kts | 356° |
| 2026-05-03 22:38 | -23.19575 | -45.98815 | 23764 ft | 428 kts | 355° |
| 2026-05-03 22:38 | -23.16614 | -45.98714 | 24348 ft | 433 kts | 355° |
| 2026-05-03 22:39 | -23.13591 | -45.98610 | 24944 ft | 436 kts | 355° |
| 2026-05-03 22:39 | -23.10539 | -45.98502 | 25560 ft | 438 kts | 355° |
| 2026-05-03 22:39 | -23.07485 | -45.98391 | 26201 ft | 440 kts | 354° |
| 2026-05-03 22:39 | -23.04413 | -45.98280 | 26830 ft | 441 kts | 354° |
| 2026-05-03 22:40 | -23.01346 | -45.98171 | 27457 ft | 441 kts | 354° |
| 2026-05-03 22:40 | -22.98271 | -45.98065 | 28062 ft | 442 kts | 354° |
| 2026-05-03 22:40 | -22.95190 | -45.97961 | 28592 ft | 444 kts | 354° |
| 2026-05-03 22:40 | -22.92093 | -45.97858 | 29171 ft | 445 kts | 353° |
| 2026-05-03 22:41 | -22.89028 | -45.97694 | 29664 ft | 450 kts | 359° |
| 2026-05-03 22:41 | -22.85917 | -45.97039 | 30133 ft | 460 kts | 5° |
| 2026-05-03 22:41 | -22.82791 | -45.96228 | 30616 ft | 461 kts | 5° |
| 2026-05-03 22:41 | -22.79657 | -45.95415 | 31065 ft | 464 kts | 5° |
| 2026-05-03 22:42 | -22.76506 | -45.94598 | 31466 ft | 466 kts | 5° |
| 2026-05-03 22:42 | -22.73341 | -45.93779 | 31855 ft | 468 kts | 5° |
| 2026-05-03 22:42 | -22.70164 | -45.92960 | 32309 ft | 468 kts | 5° |
| 2026-05-03 22:42 | -22.67035 | -45.92148 | 32852 ft | 466 kts | 5° |
| 2026-05-03 22:43 | -22.63878 | -45.91329 | 33184 ft | 466 kts | 6° |
| 2026-05-03 22:43 | -22.57673 | -45.89711 | 33228 ft | 449 kts | 5° |
| 2026-05-03 22:44 | -22.51637 | -45.88156 | 33230 ft | 444 kts | 5° |
| 2026-05-03 22:44 | -22.46636 | -45.86886 | 33229 ft | 443 kts | 5° |
| 2026-05-03 22:45 | -22.39630 | -45.85098 | 33240 ft | 444 kts | 5° |
| 2026-05-03 22:45 | -22.34625 | -45.83813 | 33235 ft | 444 kts | 6° |
| 2026-05-03 22:46 | -22.28661 | -45.81877 | 33242 ft | 457 kts | 19° |
| 2026-05-03 22:46 | -22.25902 | -45.80092 | 33242 ft | 467 kts | 31° |
| 2026-05-03 22:46 | -22.22515 | -45.77180 | 33243 ft | 470 kts | 32° |
| 2026-05-03 22:47 | -22.18263 | -45.73501 | 33245 ft | 470 kts | 32° |
| 2026-05-03 22:47 | -22.13152 | -45.69085 | 33251 ft | 471 kts | 32° |
| 2026-05-03 22:48 | -22.08025 | -45.64666 | 33260 ft | 471 kts | 32° |
| 2026-05-03 22:48 | -22.02902 | -45.60258 | 33263 ft | 471 kts | 32° |
| 2026-05-03 22:49 | -21.97772 | -45.55849 | 33261 ft | 471 kts | 32° |
| 2026-05-03 22:49 | -21.92674 | -45.51464 | 33264 ft | 471 kts | 32° |
| 2026-05-03 22:50 | -21.87561 | -45.47061 | 33260 ft | 470 kts | 32° |
| 2026-05-03 22:50 | -21.82467 | -45.42683 | 33247 ft | 470 kts | 32° |
| 2026-05-03 22:51 | -21.77347 | -45.38297 | 33245 ft | 470 kts | 32° |
| 2026-05-03 22:51 | -21.72224 | -45.33903 | 33247 ft | 470 kts | 32° |
| 2026-05-03 22:52 | -21.67093 | -45.29507 | 33244 ft | 470 kts | 32° |
| 2026-05-03 22:52 | -21.62001 | -45.25155 | 33243 ft | 470 kts | 32° |
| 2026-05-03 22:53 | -21.56877 | -45.20779 | 33241 ft | 470 kts | 32° |
| 2026-05-03 22:53 | -21.51747 | -45.16401 | 33247 ft | 470 kts | 32° |
| 2026-05-03 22:54 | -21.46623 | -45.12027 | 33248 ft | 470 kts | 32° |
| 2026-05-03 22:54 | -21.41526 | -45.07676 | 33251 ft | 470 kts | 32° |
| 2026-05-03 22:55 | -21.36396 | -45.03307 | 33260 ft | 470 kts | 32° |
| 2026-05-03 22:55 | -21.31307 | -44.98982 | 33250 ft | 469 kts | 32° |
| 2026-05-03 22:56 | -21.26182 | -44.94639 | 33264 ft | 469 kts | 32° |
| 2026-05-03 22:56 | -21.21059 | -44.90297 | 33252 ft | 469 kts | 32° |
| 2026-05-03 22:57 | -21.15936 | -44.85942 | 33248 ft | 469 kts | 32° |
| 2026-05-03 22:57 | -21.10826 | -44.81599 | 33253 ft | 469 kts | 32° |
| 2026-05-03 22:57 | -21.08232 | -44.79410 | 33083 ft | 479 kts | 32° |
| 2026-05-03 22:58 | -21.05610 | -44.77200 | 32157 ft | 478 kts | 32° |
| 2026-05-03 22:58 | -21.03011 | -44.75063 | 31538 ft | 471 kts | 31° |
| 2026-05-03 22:58 | -21.00373 | -44.73000 | 31028 ft | 468 kts | 30° |
| 2026-05-03 22:58 | -20.97716 | -44.70990 | 30512 ft | 466 kts | 29° |
| 2026-05-03 22:59 | -20.95057 | -44.69008 | 30014 ft | 464 kts | 29° |
| 2026-05-03 22:59 | -20.92429 | -44.67047 | 29525 ft | 461 kts | 29° |
| 2026-05-03 22:59 | -20.89805 | -44.65074 | 29037 ft | 459 kts | 30° |
| 2026-05-03 22:59 | -20.87206 | -44.63105 | 28569 ft | 456 kts | 30° |
| 2026-05-03 23:00 | -20.84627 | -44.61140 | 28101 ft | 453 kts | 31° |
| 2026-05-03 23:00 | -20.82069 | -44.59186 | 27646 ft | 450 kts | 31° |
| 2026-05-03 23:00 | -20.79450 | -44.57482 | 27204 ft | 440 kts | 20° |
| 2026-05-03 23:00 | -20.76612 | -44.56360 | 26764 ft | 430 kts | 9° |
| 2026-05-03 23:01 | -20.73726 | -44.55582 | 26332 ft | 427 kts | 8° |
| 2026-05-03 23:01 | -20.70849 | -44.54806 | 25883 ft | 425 kts | 9° |
| 2026-05-03 23:01 | -20.67977 | -44.54030 | 25435 ft | 424 kts | 9° |
| 2026-05-03 23:01 | -20.65111 | -44.53253 | 25033 ft | 422 kts | 9° |
| 2026-05-03 23:02 | -20.62273 | -44.52480 | 24534 ft | 423 kts | 9° |
| 2026-05-03 23:02 | -20.59441 | -44.51706 | 24286 ft | 417 kts | 10° |
| 2026-05-03 23:02 | -20.56672 | -44.50948 | 23863 ft | 415 kts | 10° |
| 2026-05-03 23:02 | -20.53872 | -44.50185 | 23304 ft | 410 kts | 9° |
| 2026-05-03 23:03 | -20.51117 | -44.49437 | 22602 ft | 405 kts | 10° |
| 2026-05-03 23:03 | -20.48404 | -44.48705 | 22135 ft | 399 kts | 10° |
| 2026-05-03 23:03 | -20.45714 | -44.47980 | 21665 ft | 398 kts | 10° |
| 2026-05-03 23:03 | -20.43065 | -44.47266 | 21194 ft | 397 kts | 10° |
| 2026-05-03 23:04 | -20.40398 | -44.46546 | 20802 ft | 392 kts | 11° |
| 2026-05-03 23:04 | -20.37779 | -44.45837 | 20255 ft | 382 kts | 11° |
| 2026-05-03 23:04 | -20.35244 | -44.45148 | 19806 ft | 370 kts | 11° |
| 2026-05-03 23:04 | -20.32748 | -44.44469 | 19355 ft | 370 kts | 11° |
| 2026-05-03 23:05 | -20.30252 | -44.43790 | 18894 ft | 369 kts | 11° |
| 2026-05-03 23:05 | -20.27768 | -44.43115 | 18446 ft | 368 kts | 11° |
| 2026-05-03 23:05 | -20.25290 | -44.42439 | 17990 ft | 367 kts | 11° |
| 2026-05-03 23:05 | -20.22820 | -44.41766 | 17540 ft | 366 kts | 12° |
| 2026-05-03 23:06 | -20.20389 | -44.41106 | 17091 ft | 364 kts | 12° |
| 2026-05-03 23:06 | -20.17933 | -44.40441 | 16626 ft | 363 kts | 12° |
| 2026-05-03 23:06 | -20.15502 | -44.39783 | 16166 ft | 357 kts | 12° |
| 2026-05-03 23:06 | -20.13119 | -44.39137 | 15722 ft | 351 kts | 13° |
| 2026-05-03 23:07 | -20.10761 | -44.38497 | 15276 ft | 345 kts | 13° |
| 2026-05-03 23:07 | -20.08450 | -44.37872 | 14834 ft | 340 kts | 13° |
| 2026-05-03 23:07 | -20.06180 | -44.37257 | 14404 ft | 335 kts | 13° |
| 2026-05-03 23:07 | -20.03975 | -44.36661 | 13984 ft | 329 kts | 13° |
| 2026-05-03 23:08 | -20.01773 | -44.36063 | 13590 ft | 324 kts | 14° |
| 2026-05-03 23:08 | -19.99588 | -44.35470 | 13196 ft | 324 kts | 14° |
| 2026-05-03 23:08 | -19.97393 | -44.34876 | 12799 ft | 324 kts | 14° |
| 2026-05-03 23:08 | -19.95207 | -44.34287 | 12406 ft | 323 kts | 14° |
| 2026-05-03 23:09 | -19.93021 | -44.33696 | 12010 ft | 323 kts | 15° |
| 2026-05-03 23:09 | -19.90872 | -44.33115 | 11625 ft | 322 kts | 15° |
| 2026-05-03 23:09 | -19.88693 | -44.32528 | 11231 ft | 322 kts | 15° |
| 2026-05-03 23:09 | -19.86530 | -44.31944 | 10941 ft | 317 kts | 15° |
| 2026-05-03 23:10 | -19.84408 | -44.31371 | 10706 ft | 312 kts | 15° |
| 2026-05-03 23:10 | -19.82318 | -44.30807 | 10459 ft | 308 kts | 15° |
| 2026-05-03 23:10 | -19.80258 | -44.30250 | 10229 ft | 302 kts | 15° |
| 2026-05-03 23:10 | -19.78232 | -44.29702 | 9976 ft | 298 kts | 15° |
| 2026-05-03 23:11 | -19.76257 | -44.29037 | 9744 ft | 296 kts | 26° |
| 2026-05-03 23:11 | -19.74490 | -44.27993 | 9510 ft | 294 kts | 32° |
| 2026-05-03 23:11 | -19.72728 | -44.26882 | 9278 ft | 294 kts | 32° |
| 2026-05-03 23:11 | -19.70978 | -44.25780 | 9047 ft | 292 kts | 32° |
| 2026-05-03 23:12 | -19.69239 | -44.24686 | 8811 ft | 290 kts | 32° |
| 2026-05-03 23:12 | -19.67497 | -44.23593 | 8523 ft | 290 kts | 32° |
| 2026-05-03 23:12 | -19.65791 | -44.22523 | 8258 ft | 280 kts | 32° |
| 2026-05-03 23:12 | -19.64109 | -44.21514 | 7993 ft | 278 kts | 30° |
| 2026-05-03 23:13 | -19.62388 | -44.20569 | 7769 ft | 278 kts | 28° |
| 2026-05-03 23:13 | -19.60698 | -44.19678 | 7547 ft | 264 kts | 28° |
| 2026-05-03 23:13 | -19.59096 | -44.18841 | 7350 ft | 249 kts | 28° |
| 2026-05-03 23:13 | -19.57562 | -44.18035 | 7145 ft | 243 kts | 28° |
| 2026-05-03 23:14 | -19.56170 | -44.17104 | 6964 ft | 234 kts | 44° |
| 2026-05-03 23:14 | -19.55068 | -44.15861 | 6713 ft | 230 kts | 51° |
| 2026-05-03 23:14 | -19.54016 | -44.14590 | 6492 ft | 225 kts | 51° |
| 2026-05-03 23:14 | -19.52987 | -44.13350 | 6269 ft | 223 kts | 51° |
| 2026-05-03 23:15 | -19.51967 | -44.12122 | 6047 ft | 219 kts | 52° |
| 2026-05-03 23:15 | -19.51007 | -44.10914 | 5834 ft | 210 kts | 60° |
| 2026-05-03 23:15 | -19.50660 | -44.09508 | 5677 ft | 193 kts | 97° |
| 2026-05-03 23:15 | -19.51109 | -44.08254 | 5562 ft | 178 kts | 130° |
| 2026-05-03 23:16 | -19.51993 | -44.07372 | 5380 ft | 173 kts | 139° |
| 2026-05-03 23:16 | -19.52891 | -44.06550 | 5166 ft | 169 kts | 138° |
| 2026-05-03 23:16 | -19.53771 | -44.05740 | 4941 ft | 165 kts | 138° |
| 2026-05-03 23:16 | -19.54638 | -44.04938 | 4729 ft | 164 kts | 138° |
| 2026-05-03 23:17 | -19.55487 | -44.04156 | 4513 ft | 159 kts | 138° |
| 2026-05-03 23:17 | -19.56295 | -44.03412 | 4322 ft | 149 kts | 137° |
| 2026-05-03 23:17 | -19.57057 | -44.02709 | 4130 ft | 142 kts | 137° |
| 2026-05-03 23:17 | -19.57798 | -44.02026 | 3931 ft | 140 kts | 137° |
| 2026-05-03 23:18 | -19.58533 | -44.01347 | 3744 ft | 140 kts | 137° |
| 2026-05-03 23:18 | -19.59267 | -44.00667 | 3553 ft | 140 kts | 137° |
| 2026-05-03 23:18 | -19.60001 | -43.99992 | 3336 ft | 139 kts | 137° |
| 2026-05-03 23:18 | -19.60732 | -43.99314 | 3151 ft | 139 kts | 137° |
| 2026-05-03 23:19 | -19.61453 | -43.98651 | 3002 ft | 139 kts | 138° |
| 2026-05-03 23:19 | -19.62181 | -43.97971 | 2844 ft | 139 kts | 137° |
| 2026-05-03 23:19 | -19.62888 | -43.97317 | 2755 ft | 119 kts | 139° |
| 2026-05-03 23:19 | -19.63289 | -43.96953 | 2752 ft | 37 kts | 139° |
| 2026-05-03 23:20 | -19.63482 | -43.96774 | 2751 ft | 36 kts | 139° |
| 2026-05-03 23:20 | -19.63583 | -43.96612 | 2751 ft | 27 kts | 107° |
| 2026-05-03 23:20 | -19.63632 | -43.96461 | 2752 ft | 22 kts | 109° |
| 2026-05-03 23:20 | -19.63594 | -43.96349 | 2753 ft | 19 kts | 29° |
| 2026-05-03 23:21 | -19.63482 | -43.96285 | 2753 ft | 12 kts | 27° |
| 2026-05-03 23:21 | -19.63421 | -43.96328 | 2754 ft | 12 kts | 297° |
| 2026-05-03 23:21 | -19.63379 | -43.96413 | 2752 ft | 14 kts | 303° |
| 2026-05-03 23:21 | -19.63322 | -43.96468 | 2752 ft | 6 kts | 345° |
| 2026-05-03 23:22 | -19.63290 | -43.96433 | 2752 ft | 0 kts | 53° |
| 2026-05-03 23:30 | -19.63291 | -43.96433 | 2740 ft | 0 kts | 57° |
| 2026-05-03 23:31 | -19.63287 | -43.96450 | 2521 ft | 2 kts | 239° |
| 2026-05-03 23:31 | -19.63290 | -43.96453 | 2752 ft | 1 kts | 239° |
| 2026-05-03 23:31 | -19.63289 | -43.96455 | 2752 ft | 0 kts | 243° |